Time;durP1;ratioP1;P1;durP2;ratioP2;P2;SDS_P1;SDS_P2;PMS_P1;PMS_P2;Temp;Humidity;BMP_temperature;BMP_pressure;BME280_temperature;BME280_humidity;BME280_pressure;Samples;Min_cycle;Max_cycle;Signal;HPM_P1;HPM_P2
2021/03/23 00:00:52;;;;;;;15.73;7.40;;;77.10;1536.00;;;;;;5073648;28;20466;-65
2021/03/23 00:03:33;;;;;;;16.15;7.82;;;77.10;1536.00;;;;;;5073872;28;20517;-65
2021/03/23 00:05:59;;;;;;;14.70;7.32;;;77.10;1536.00;;;;;;5073928;28;20091;-70
2021/03/23 00:08:28;;;;;;;17.08;8.15;;;77.00;1536.00;;;;;;5073529;28;20537;-66
2021/03/23 00:10:59;;;;;;;16.40;7.82;;;77.10;1561.60;;;;;;5073721;28;20075;-65
2021/03/23 00:13:25;;;;;;;11.80;7.05;;;77.10;1536.00;;;;;;5073625;28;20028;-65
2021/03/23 00:15:51;;;;;;;16.30;7.95;;;77.10;1561.60;;;;;;5055655;28;20040;-65
2021/03/23 00:18:18;;;;;;;19.33;8.18;;;77.00;1536.00;;;;;;5073732;28;20473;-65
2021/03/23 00:20:44;;;;;;;18.05;7.95;;;77.00;1536.00;;;;;;5073182;28;20032;-65
2021/03/23 00:23:11;;;;;;;20.35;8.57;;;77.00;1536.00;;;;;;5073262;28;20106;-67
2021/03/23 00:25:37;;;;;;;18.95;8.40;;;77.00;1561.60;;;;;;5073390;28;20103;-67
2021/03/23 00:28:04;;;;;;;16.95;8.02;;;77.00;1561.60;;;;;;5073501;28;20120;-65
2021/03/23 00:30:30;;;;;;;15.13;7.22;;;77.00;1561.60;;;;;;5073479;28;20021;-65
2021/03/23 00:32:56;;;;;;;14.73;8.23;;;76.90;1561.60;;;;;;5073416;28;20101;-65
2021/03/23 00:35:22;;;;;;;16.48;7.35;;;77.00;1561.60;;;;;;5073842;28;20055;-65
2021/03/23 00:37:54;;;;;;;18.05;7.75;;;76.90;1561.60;;;;;;5073194;28;20048;-65
2021/03/23 00:40:23;;;;;;;17.90;7.28;;;76.90;1561.60;;;;;;5073254;28;20462;-66
2021/03/23 00:42:49;;;;;;;12.55;6.78;;;76.90;1561.60;;;;;;5073400;28;20021;-64
2021/03/23 00:45:17;;;;;;;18.33;7.22;;;76.90;1561.60;;;;;;5073610;28;20043;-73
2021/03/23 00:47:42;;;;;;;17.15;7.75;;;76.90;1561.60;;;;;;5073381;28;20107;-64
2021/03/23 00:50:09;;;;;;;14.73;7.28;;;76.90;1587.20;;;;;;5073484;28;20108;-64
2021/03/23 00:52:35;;;;;;;19.20;7.60;;;76.90;1561.60;;;;;;5072637;28;20039;-69
2021/03/23 00:55:01;;;;;;;17.10;8.07;;;76.90;1587.20;;;;;;5055300;28;20112;-64
2021/03/23 00:57:27;;;;;;;19.10;8.35;;;76.90;1587.20;;;;;;5073008;28;20089;-71
2021/03/23 00:59:52;;;;;;;15.85;8.00;;;76.90;1561.60;;;;;;5073400;28;20117;-64
2021/03/23 01:02:18;;;;;;;21.55;9.77;;;76.90;1587.20;;;;;;5073387;28;20111;-70
2021/03/23 01:04:44;;;;;;;25.42;10.70;;;76.90;1587.20;;;;;;5073265;28;20490;-64
2021/03/23 01:07:10;;;;;;;25.98;11.00;;;76.90;1587.20;;;;;;5072863;28;20031;-64
2021/03/23 01:09:36;;;;;;;28.95;11.88;;;76.80;1587.20;;;;;;5073221;28;20214;-63
2021/03/23 01:12:03;;;;;;;30.42;11.88;;;76.80;1587.20;;;;;;5073032;28;20064;-64
2021/03/23 01:14:29;;;;;;;25.73;10.68;;;76.80;1587.20;;;;;;5073005;28;20112;-64
2021/03/23 01:16:54;;;;;;;25.88;10.13;;;76.80;1587.20;;;;;;5073219;28;20063;-64
2021/03/23 01:19:20;;;;;;;18.98;9.75;;;76.80;1587.20;;;;;;5072960;28;20158;-65
2021/03/23 01:21:46;;;;;;;21.13;9.63;;;76.80;1612.80;;;;;;5073137;28;20043;-65
2021/03/23 01:24:11;;;;;;;17.10;8.15;;;76.80;1587.20;;;;;;5073242;28;20107;-64
2021/03/23 01:26:37;;;;;;;19.00;7.78;;;76.80;1612.80;;;;;;5072895;28;20031;-65
2021/03/23 01:29:03;;;;;;;14.27;6.88;;;76.80;1587.20;;;;;;5072999;28;20039;-65
2021/03/23 01:31:28;;;;;;;11.23;5.93;;;52.10;1612.80;;;;;;5073066;28;20082;-66
2021/03/23 01:33:54;;;;;;;13.13;6.30;;;52.10;1587.20;;;;;;5076687;28;20032;-66
2021/03/23 01:36:20;;;;;;;13.32;6.10;;;52.10;1612.80;;;;;;5076440;28;20028;-66
2021/03/23 01:38:45;;;;;;;15.18;6.20;;;52.10;1612.80;;;;;;5076303;28;20058;-65
2021/03/23 01:41:11;;;;;;;11.98;5.65;;;52.10;1612.80;;;;;;5076681;28;20024;-66
2021/03/23 01:43:37;;;;;;;13.48;5.43;;;52.10;1612.80;;;;;;5076389;28;20488;-66
2021/03/23 01:46:31;;;;;;;12.25;5.40;;;52.00;1612.80;;;;;;5058302;28;20032;-65
2021/03/23 01:48:59;;;;;;;13.27;5.18;;;52.10;1612.80;;;;;;5058468;28;20044;-65
2021/03/23 01:51:25;;;;;;;11.10;5.13;;;52.00;1612.80;;;;;;5076221;28;20024;-64
2021/03/23 01:53:58;;;;;;;13.48;5.70;;;52.00;1612.80;;;;;;5075957;28;20044;-64
2021/03/23 01:56:23;;;;;;;14.15;5.28;;;52.00;1612.80;;;;;;5076385;28;20025;-63
2021/03/23 01:58:50;;;;;;;11.40;5.90;;;52.00;1612.80;;;;;;5076137;28;20036;-64
2021/03/23 02:01:19;;;;;;;11.95;5.28;;;52.00;1612.80;;;;;;5076142;28;20054;-64
2021/03/23 02:03:47;;;;;;;11.85;4.93;;;52.00;1612.80;;;;;;5076164;28;20024;-64
2021/03/23 02:06:36;;;;;;;10.27;5.65;;;52.00;1638.40;;;;;;5075819;28;20420;-65
2021/03/23 02:09:04;;;;;;;11.43;5.35;;;52.00;1638.40;;;;;;5075936;28;20021;-65
2021/03/23 02:11:32;;;;;;;11.32;5.22;;;52.00;1612.80;;;;;;5076165;28;20025;-66
2021/03/23 02:13:58;;;;;;;12.35;5.50;;;51.90;1612.80;;;;;;5076000;28;20417;-65
2021/03/23 02:16:24;;;;;;;11.80;6.53;;;51.90;1638.40;;;;;;5075783;28;20104;-65
2021/03/23 02:18:50;;;;;;;12.20;4.68;;;51.90;1638.40;;;;;;5075935;28;20031;-65
2021/03/23 02:21:19;;;;;;;19.50;5.25;;;51.90;1638.40;;;;;;5075660;28;20024;-65
2021/03/23 02:23:53;;;;;;;12.90;5.60;;;51.90;1638.40;;;;;;5075646;28;20028;-65
2021/03/23 02:26:31;;;;;;;13.77;6.00;;;51.90;1638.40;;;;;;5075713;28;20078;-65
2021/03/23 02:28:56;;;;;;;11.55;5.60;;;51.90;1638.40;;;;;;5075618;28;20074;-64
2021/03/23 02:31:25;;;;;;;13.55;5.65;;;51.90;1638.40;;;;;;5075193;28;20028;-65
2021/03/23 02:33:51;;;;;;;12.82;4.68;;;51.90;1638.40;;;;;;5075334;28;20033;-65
2021/03/23 02:36:18;;;;;;;9.18;4.45;;;51.90;1638.40;;;;;;5075362;28;20396;-65
2021/03/23 02:38:44;;;;;;;11.45;4.90;;;51.90;1638.40;;;;;;5075422;28;20055;-65
2021/03/23 02:41:09;;;;;;;9.50;4.15;;;51.90;1638.40;;;;;;5075395;28;20374;-65
2021/03/23 02:43:35;;;;;;;9.02;4.28;;;51.90;1664.00;;;;;;5074469;28;20028;-65
2021/03/23 02:46:01;;;;;;;9.00;3.92;;;51.90;1638.40;;;;;;5075199;28;20036;-66
2021/03/23 02:48:27;;;;;;;11.55;5.55;;;51.90;1638.40;;;;;;5074999;28;20052;-65
2021/03/23 02:50:53;;;;;;;8.45;3.95;;;51.90;1638.40;;;;;;5075030;28;20074;-65
2021/03/23 02:53:19;;;;;;;8.43;3.97;;;51.90;1638.40;;;;;;5075108;28;20082;-65
2021/03/23 02:55:46;;;;;;;11.73;4.40;;;51.90;1664.00;;;;;;5074862;28;20021;-65
2021/03/23 02:58:12;;;;;;;9.25;3.92;;;51.90;1638.40;;;;;;5075039;28;20025;-65
2021/03/23 03:00:39;;;;;;;7.45;3.83;;;51.90;1664.00;;;;;;5075106;28;20025;-65
2021/03/23 03:03:04;;;;;;;9.05;4.03;;;51.80;1664.00;;;;;;5075036;28;20082;-65
2021/03/23 03:05:30;;;;;;;5.35;3.42;;;51.80;1664.00;;;;;;5074975;28;20028;-67
2021/03/23 03:07:56;;;;;;;8.93;4.18;;;51.90;1664.00;;;;;;5074908;28;20067;-66
2021/03/23 03:10:22;;;;;;;10.27;4.30;;;51.80;1664.00;;;;;;5075089;28;20062;-66
2021/03/23 03:12:48;;;;;;;8.05;3.92;;;51.90;1664.00;;;;;;5074520;28;20047;-65
2021/03/23 03:15:14;;;;;;;11.40;4.90;;;51.80;1664.00;;;;;;5074603;28;20025;-66
2021/03/23 03:17:39;;;;;;;10.40;4.78;;;51.80;1664.00;;;;;;5074721;28;20060;-65
2021/03/23 03:20:06;;;;;;;11.25;4.95;;;51.80;1664.00;;;;;;5074417;28;20103;-65
2021/03/23 03:22:32;;;;;;;10.55;4.93;;;51.80;1664.00;;;;;;5074434;28;20024;-66
2021/03/23 03:24:58;;;;;;;13.00;4.82;;;51.80;1664.00;;;;;;5074406;28;20039;-65
2021/03/23 03:27:24;;;;;;;9.88;4.82;;;51.70;1664.00;;;;;;5074598;28;20021;-65
2021/03/23 03:29:49;;;;;;;16.58;4.63;;;51.70;1664.00;;;;;;5074363;28;20525;-64
2021/03/23 03:32:15;;;;;;;9.63;4.70;;;51.70;1664.00;;;;;;5074273;28;20059;-64
2021/03/23 03:34:41;;;;;;;12.15;5.00;;;51.70;1664.00;;;;;;5074248;28;20025;-65
2021/03/23 03:37:07;;;;;;;12.50;5.65;;;51.70;1664.00;;;;;;5073918;28;20589;-65
2021/03/23 03:39:33;;;;;;;11.82;5.60;;;51.70;1689.60;;;;;;5074147;28;20032;-64
2021/03/23 03:41:59;;;;;;;11.77;5.03;;;51.70;1689.60;;;;;;5074006;28;20024;-64
2021/03/23 03:44:25;;;;;;;15.23;5.75;;;51.60;1664.00;;;;;;5074291;28;20033;-64
2021/03/23 03:46:51;;;;;;;12.02;5.25;;;51.60;1689.60;;;;;;5056211;28;20032;-64
2021/03/23 03:49:17;;;;;;;10.13;5.15;;;51.60;1715.20;;;;;;5073944;28;20029;-64
2021/03/23 03:51:42;;;;;;;10.15;4.93;;;51.60;1689.60;;;;;;5073938;28;20032;-63
2021/03/23 03:54:08;;;;;;;11.93;4.78;;;51.60;1689.60;;;;;;5074145;28;20035;-63
2021/03/23 03:56:34;;;;;;;10.98;5.82;;;51.60;1689.60;;;;;;5055213;28;20495;-64
2021/03/23 03:58:59;;;;;;;9.30;5.10;;;51.60;1689.60;;;;;;5055893;28;20062;-63
2021/03/23 04:01:25;;;;;;;9.75;5.45;;;51.60;1689.60;;;;;;5073940;28;20478;-64
2021/03/23 04:03:51;;;;;;;9.32;5.40;;;51.60;1689.60;;;;;;5073798;28;20493;-63
2021/03/23 04:06:17;;;;;;;15.02;6.80;;;51.60;1689.60;;;;;;5073643;28;20049;-70
2021/03/23 04:08:42;;;;;;;13.65;6.22;;;51.60;1689.60;;;;;;5073714;28;20501;-63
2021/03/23 04:11:10;;;;;;;14.40;6.97;;;51.60;1689.60;;;;;;5073613;28;20035;-69
2021/03/23 04:13:36;;;;;;;19.35;6.68;;;51.60;1689.60;;;;;;5073718;28;20020;-63
2021/03/23 04:16:03;;;;;;;16.50;7.95;;;51.60;1689.60;;;;;;5073748;28;20424;-63
2021/03/23 04:18:29;;;;;;;15.75;8.07;;;51.50;1664.00;;;;;;5073969;28;20424;-62
2021/03/23 04:20:58;;;;;;;16.95;9.30;;;51.50;1664.00;;;;;;5074136;28;20111;-62
2021/03/23 04:23:36;;;;;;;15.10;7.28;;;51.50;1664.00;;;;;;5055591;28;20024;-64
2021/03/23 04:26:04;;;;;;;15.35;6.43;;;51.50;1664.00;;;;;;5073777;28;20020;-63
2021/03/23 04:28:29;;;;;;;14.57;5.57;;;51.50;1664.00;;;;;;5073446;28;20025;-63
2021/03/23 04:30:56;;;;;;;13.80;6.38;;;51.50;1638.40;;;;;;5073838;28;20031;-63
2021/03/23 04:33:25;;;;;;;13.65;6.15;;;51.50;1664.00;;;;;;5073413;28;20036;-63
2021/03/23 04:35:57;;;;;;;10.82;5.32;;;51.40;1638.40;;;;;;5073632;28;20028;-63
2021/03/23 04:38:32;;;;;;;13.75;6.22;;;51.40;1638.40;;;;;;5073124;28;20051;-64
2021/03/23 04:41:02;;;;;;;13.73;6.05;;;51.50;1638.40;;;;;;5073324;28;20032;-64
2021/03/23 04:43:39;;;;;;;13.95;5.53;;;51.40;1638.40;;;;;;5073524;28;20090;-63
2021/03/23 04:46:05;;;;;;;14.13;6.55;;;51.40;1638.40;;;;;;5073438;28;20031;-64
2021/03/23 04:48:31;;;;;;;12.45;6.25;;;51.40;1638.40;;;;;;5073481;28;20382;-63
2021/03/23 04:50:57;;;;;;;18.23;7.20;;;51.40;1638.40;;;;;;5073426;28;20419;-63
2021/03/23 04:53:30;;;;;;;18.05;7.13;;;51.40;1638.40;;;;;;5073219;28;20060;-64
2021/03/23 04:55:56;;;;;;;14.88;6.65;;;51.40;1638.40;;;;;;5073242;28;20031;-63
2021/03/23 04:58:23;;;;;;;15.55;7.25;;;51.40;1638.40;;;;;;5073398;28;20036;-63
2021/03/23 05:00:49;;;;;;;16.73;8.93;;;51.40;1638.40;;;;;;5073424;28;20020;-63
2021/03/23 05:03:17;;;;;;;17.88;8.98;;;51.40;1638.40;;;;;;5073422;28;20532;-63
2021/03/23 05:05:43;;;;;;;22.05;8.35;;;51.50;1638.40;;;;;;5073480;28;20077;-63
2021/03/23 05:08:09;;;;;;;16.30;7.60;;;51.50;1638.40;;;;;;5076156;28;20036;-66
2021/03/23 05:10:35;;;;;;;18.23;10.02;;;51.50;1638.40;;;;;;5077239;28;20031;-65
2021/03/23 05:13:02;;;;;;;19.08;8.68;;;51.50;1638.40;;;;;;5077194;28;20033;-63
2021/03/23 05:15:29;;;;;;;18.27;8.55;;;51.60;1612.80;;;;;;5077277;28;20040;-63
2021/03/23 05:17:55;;;;;;;19.92;8.60;;;51.60;1612.80;;;;;;5059069;28;20103;-62
2021/03/23 05:20:21;;;;;;;16.73;8.88;;;51.60;1612.80;;;;;;5076917;28;20095;-63
2021/03/23 05:22:47;;;;;;;19.15;8.77;;;51.60;1612.80;;;;;;5076984;28;20036;-63
2021/03/23 05:25:14;;;;;;;21.63;9.25;;;51.70;1612.80;;;;;;5077168;28;20025;-63
2021/03/23 05:27:40;;;;;;;15.48;7.57;;;51.70;1612.80;;;;;;5077220;28;20021;-64
2021/03/23 05:30:06;;;;;;;16.60;8.25;;;51.70;1612.80;;;;;;5076687;28;20370;-63
2021/03/23 05:32:32;;;;;;;15.23;7.78;;;51.80;1612.80;;;;;;5076795;28;20028;-63
2021/03/23 05:34:58;;;;;;;17.05;8.48;;;51.80;1587.20;;;;;;5076737;28;20035;-63
2021/03/23 05:37:24;;;;;;;18.48;9.30;;;51.90;1587.20;;;;;;5076555;28;20048;-63
2021/03/23 05:39:49;;;;;;;22.85;10.75;;;51.90;1587.20;;;;;;5076547;28;20016;-63
2021/03/23 05:42:40;;;;;;;27.23;11.15;;;52.00;1587.20;;;;;;5076410;28;20096;-63
2021/03/23 05:45:31;;;;;;;23.58;11.65;;;52.10;1587.20;;;;;;5076449;28;20444;-63
2021/03/23 05:48:19;;;;;;;19.40;8.77;;;76.80;1561.60;;;;;;5076471;28;20029;-63
2021/03/23 05:51:11;;;;;;;20.98;9.68;;;76.90;1561.60;;;;;;5076278;28;20031;-63
2021/03/23 05:53:51;;;;;;;19.38;9.57;;;77.00;1561.60;;;;;;5075812;28;20032;-64
2021/03/23 05:56:18;;;;;;;23.02;10.32;;;77.10;1536.00;;;;;;5076269;28;20033;-63
2021/03/23 05:58:52;;;;;;;21.85;9.55;;;77.20;1536.00;;;;;;5076455;28;20386;-63
2021/03/23 06:01:21;;;;;;;24.23;11.35;;;77.30;1536.00;;;;;;5076309;28;20079;-63
2021/03/23 06:03:53;;;;;;;30.58;12.80;;;77.30;1536.00;;;;;;5076070;28;20108;-63
2021/03/23 06:06:46;;;;;;;30.65;13.55;;;77.50;1536.00;;;;;;5076169;28;20029;-63
2021/03/23 06:09:15;;;;;;;26.42;12.15;;;77.50;1510.40;;;;;;5075915;28;20111;-63
2021/03/23 06:11:43;;;;;;;23.33;12.50;;;77.60;1510.40;;;;;;5075957;28;20051;-64
2021/03/23 06:14:33;;;;;;;27.73;13.95;;;102.40;1510.40;;;;;;5075754;28;20028;-65
2021/03/23 06:17:25;;;;;;;30.45;11.73;;;102.50;1484.80;;;;;;5075948;28;20111;-63
2021/03/23 06:20:12;;;;;;;26.10;11.55;;;102.60;1484.80;;;;;;5057032;28;20032;-63
2021/03/23 06:23:00;;;;;;;35.30;14.25;;;102.70;1459.20;;;;;;5075794;28;20048;-63
2021/03/23 06:25:31;;;;;;;31.10;12.65;;;102.80;1459.20;;;;;;5075641;28;20029;-63
2021/03/23 06:28:18;;;;;;;28.52;12.50;;;102.90;1459.20;;;;;;5075443;28;20409;-63
2021/03/23 06:30:50;;;;;;;27.27;12.48;;;103.00;1459.20;;;;;;5075573;28;20028;-63
2021/03/23 06:33:25;;;;;;;26.23;13.52;;;103.10;1433.60;;;;;;5075520;28;20439;-63
2021/03/23 06:36:01;;;;;;;23.55;10.88;;;103.20;1433.60;;;;;;5075322;28;20021;-63
2021/03/23 06:38:42;;;;;;;20.52;10.63;;;128.00;1433.60;;;;;;5075280;28;20094;-63
2021/03/23 06:41:07;;;;;;;18.08;9.52;;;128.20;1433.60;;;;;;5057212;28;20037;-64
2021/03/23 06:43:35;;;;;;;24.33;11.25;;;128.50;1408.00;;;;;;5075515;28;20074;-64
2021/03/23 06:46:16;;;;;;;29.75;13.73;;;128.70;1408.00;;;;;;5075415;28;20024;-63
2021/03/23 06:48:42;;;;;;;22.55;12.23;;;128.90;1382.40;;;;;;5075422;28;20074;-63
2021/03/23 06:51:13;;;;;;;22.65;12.02;;;153.80;1356.80;;;;;;5075170;28;20107;-63
2021/03/23 06:53:40;;;;;;;16.88;9.60;;;154.10;1331.20;;;;;;5075143;28;20036;-65
2021/03/23 06:56:28;;;;;;;16.83;8.23;;;154.30;1305.60;;;;;;5074911;28;20105;-72
2021/03/23 06:59:14;;;;;;;20.23;9.95;;;179.20;1305.60;;;;;;5075180;28;20410;-63
2021/03/23 07:01:47;;;;;;;38.03;17.20;;;179.50;1254.40;;;;;;5074746;28;20020;-63
2021/03/23 07:04:35;;;;;;;45.80;23.13;;;179.80;1254.40;;;;;;5075123;28;20055;-64
2021/03/23 07:07:21;;;;;;;28.05;12.88;;;180.00;1228.80;;;;;;5075039;28;20030;-64
2021/03/23 07:09:53;;;;;;;30.20;14.73;;;204.80;1203.20;;;;;;5074737;28;20025;-65
2021/03/23 07:12:35;;;;;;;25.45;14.32;;;205.10;1203.20;;;;;;5074681;28;20367;-65
2021/03/23 07:15:14;;;;;;;22.35;10.65;;;205.30;1177.60;;;;;;5056773;28;20374;-63
2021/03/23 07:17:44;;;;;;;20.20;9.05;;;205.60;1152.00;;;;;;5074449;28;20450;-63
2021/03/23 07:20:28;;;;;;;17.55;8.55;;;230.40;1152.00;;;;;;5056716;28;20028;-64
2021/03/23 07:22:55;;;;;;;17.23;9.32;;;230.60;1126.40;;;;;;5074761;28;20036;-64
2021/03/23 07:25:36;;;;;;;17.42;8.10;;;230.80;1126.40;;;;;;5074541;28;20012;-64
2021/03/23 07:28:23;;;;;;;17.50;9.57;;;231.00;1100.80;;;;;;5074508;28;20104;-65
2021/03/23 07:31:02;;;;;;;18.58;9.05;;;231.20;1100.80;;;;;;5074312;28;20111;-63
2021/03/23 07:33:42;;;;;;;16.27;8.35;;;256.00;1075.20;;;;;;5056132;28;20051;-65
2021/03/23 07:36:12;;;;;;;21.23;10.18;;;256.30;1049.60;;;;;;5074462;28;20028;-71
2021/03/23 07:38:45;;;;;;;20.40;10.18;;;256.50;1049.60;;;;;;5074086;28;20485;-67
2021/03/23 07:41:37;;;;;;;28.30;13.18;;;256.70;1049.60;;;;;;5074296;28;20021;-64
2021/03/23 07:44:20;;;;;;;28.08;15.23;;;281.60;1049.60;;;;;;5074083;28;20043;-66
2021/03/23 07:46:54;;;;;;;20.60;11.43;;;281.80;1049.60;;;;;;5073977;28;20028;-63
2021/03/23 07:49:41;;;;;;;23.65;10.57;;;282.00;1024.00;;;;;;5074062;28;20381;-65
2021/03/23 07:52:30;;;;;;;20.52;11.40;;;282.20;1024.00;;;;;;5073934;28;20040;-63
2021/03/23 07:55:01;;;;;;;19.15;9.80;;;282.40;998.40;;;;;;5074027;28;20027;-65
2021/03/23 07:57:33;;;;;;;20.98;9.60;;;307.20;998.40;;;;;;5073966;28;20031;-64
2021/03/23 08:00:14;;;;;;;20.30;9.18;;;307.30;972.80;;;;;;5073930;28;20016;-64
2021/03/23 08:03:21;;;;;;;21.20;11.13;;;307.50;972.80;;;;;;5073925;28;20466;-64
2021/03/23 08:06:14;;;;;;;18.65;8.63;;;307.70;972.80;;;;;;5073544;28;20150;-64
2021/03/23 08:09:18;;;;;;;22.00;9.07;;;307.80;947.20;;;;;;5073248;28;20032;-64
2021/03/23 08:12:08;;;;;;;19.65;9.13;;;307.90;921.60;;;;;;5073816;28;20031;-64
2021/03/23 08:15:04;;;;;;;18.15;8.90;;;308.10;921.60;;;;;;5073830;28;20494;-67
2021/03/23 08:17:57;;;;;;;19.58;9.35;;;332.90;921.60;;;;;;5073131;28;20039;-64
2021/03/23 08:20:46;;;;;;;18.58;9.85;;;333.00;921.60;;;;;;5073601;28;20024;-64
2021/03/23 08:23:31;;;;;;;17.75;9.90;;;333.10;896.00;;;;;;5073725;28;20028;-64
2021/03/23 08:26:08;;;;;;;13.68;7.43;;;333.30;896.00;;;;;;5073764;28;20066;-64
2021/03/23 08:28:49;;;;;;;14.10;7.10;;;333.40;870.40;;;;;;5055088;28;20024;-66
2021/03/23 08:31:52;;;;;;;13.43;6.40;;;333.50;870.40;;;;;;5055352;28;20032;-64
2021/03/23 08:34:33;;;;;;;11.45;6.45;;;333.60;870.40;;;;;;5073668;28;20031;-65
2021/03/23 08:37:13;;;;;;;16.88;7.15;;;333.70;844.80;;;;;;5054909;28;20056;-64
2021/03/23 08:40:23;;;;;;;14.07;6.78;;;358.40;844.80;;;;;;5073442;28;20028;-64
2021/03/23 08:42:49;;;;;;;12.15;6.32;;;358.50;819.20;;;;;;4975055;28;20042;-65
2021/03/23 08:45:28;;;;;;;11.02;5.20;;;358.60;793.60;;;;;;4976850;28;20035;-64
2021/03/23 08:48:16;;;;;;;10.88;6.72;;;358.60;793.60;;;;;;4976701;28;20035;-64
2021/03/23 08:50:44;;;;;;;11.93;6.13;;;358.70;793.60;;;;;;4976718;28;20023;-64
2021/03/23 08:53:30;;;;;;;13.65;7.72;;;358.80;819.20;;;;;;4975895;28;20051;-65
2021/03/23 08:55:56;;;;;;;9.30;5.20;;;359.00;793.60;;;;;;4981698;28;20109;-64
2021/03/23 08:58:54;;;;;;;16.67;7.88;;;359.10;768.00;;;;;;4996068;28;20555;-65
2021/03/23 09:01:28;;;;;;;16.48;8.77;;;359.20;742.40;;;;;;4937742;29;20040;-65
2021/03/23 09:04:16;;;;;;;29.17;16.42;;;359.20;742.40;;;;;;4922545;29;20036;-69
2021/03/23 09:06:53;;;;;;;52.25;30.65;;;359.20;742.40;;;;;;4922554;29;20501;-65
2021/03/23 09:09:27;;;;;;;23.13;12.68;;;359.30;742.40;;;;;;4917878;29;20040;-65
2021/03/23 09:12:34;;;;;;;18.55;12.15;;;384.00;742.40;;;;;;4914992;29;20036;-65
2021/03/23 09:15:16;;;;;;;13.25;7.85;;;384.10;716.80;;;;;;4917083;29;20501;-69
2021/03/23 09:18:24;;;;;;;13.45;7.28;;;384.10;742.40;;;;;;4915610;29;20032;-69
2021/03/23 09:20:50;;;;;;;22.15;13.27;;;384.30;742.40;;;;;;4987828;28;20384;-71
2021/03/23 09:23:19;;;;;;;15.02;8.13;;;384.30;742.40;;;;;;4994140;28;20022;-70
2021/03/23 09:26:22;;;;;;;17.63;8.77;;;384.40;742.40;;;;;;4994029;28;20044;-65
2021/03/23 09:28:51;;;;;;;20.27;11.25;;;384.60;742.40;;;;;;4994298;28;20042;-72
2021/03/23 09:31:18;;;;;;;13.88;7.53;;;384.70;742.40;;;;;;4993662;28;20615;-64
2021/03/23 09:33:51;;;;;;;11.88;6.78;;;384.90;716.80;;;;;;4977336;28;20129;-65
2021/03/23 09:36:23;;;;;;;8.75;5.82;;;384.90;716.80;;;;;;4994139;28;20085;-65
2021/03/23 09:39:15;;;;;;;13.30;7.07;;;409.60;716.80;;;;;;5052778;28;20163;-64
2021/03/23 09:41:44;;;;;;;8.27;4.90;;;409.60;742.40;;;;;;5055284;28;20079;-69
2021/03/23 09:44:15;;;;;;;6.45;4.25;;;409.60;716.80;;;;;;5055603;28;20025;-68
2021/03/23 09:46:44;;;;;;;8.52;4.47;;;409.80;691.20;;;;;;5054809;28;20021;-72
2021/03/23 09:49:27;;;;;;;8.75;4.88;;;409.80;691.20;;;;;;5055200;28;20378;-71
2021/03/23 09:51:55;;;;;;;11.93;5.07;;;409.80;665.60;;;;;;5072808;28;20036;-65
2021/03/23 09:54:23;;;;;;;11.25;4.57;;;409.80;691.20;;;;;;5073676;28;20033;-72
2021/03/23 09:56:50;;;;;;;10.80;5.65;;;409.80;691.20;;;;;;5075272;28;20047;-67
2021/03/23 09:59:24;;;;;;;8.48;4.70;;;409.80;691.20;;;;;;5075615;28;20062;-71
2021/03/23 10:02:03;;;;;;;7.63;4.65;;;409.80;691.20;;;;;;5074558;28;20378;-72
2021/03/23 10:04:39;;;;;;;12.73;5.38;;;409.90;691.20;;;;;;5074910;28;20379;-71
2021/03/23 10:07:24;;;;;;;8.80;4.97;;;410.10;691.20;;;;;;5074538;28;20032;-65
2021/03/23 10:09:50;;;;;;;17.63;6.45;;;410.20;691.20;;;;;;5073796;28;20032;-65
2021/03/23 10:12:31;;;;;;;19.23;6.00;;;410.30;665.60;;;;;;5072831;28;20032;-65
2021/03/23 10:14:57;;;;;;;7.70;4.47;;;410.20;665.60;;;;;;5073289;28;20024;-65
2021/03/23 10:17:28;;;;;;;7.00;4.80;;;410.10;665.60;;;;;;5074138;28;20024;-66
2021/03/23 10:19:56;;;;;;;9.10;4.80;;;410.10;665.60;;;;;;5074887;28;20028;-65
2021/03/23 10:22:36;;;;;;;10.23;5.88;;;410.10;691.20;;;;;;5073144;28;20166;-68
2021/03/23 10:25:06;;;;;;;8.80;6.20;;;410.20;691.20;;;;;;5072691;28;20024;-70
2021/03/23 10:27:36;;;;;;;12.50;6.70;;;410.30;691.20;;;;;;5074496;28;20020;-71
2021/03/23 10:30:11;;;;;;;13.65;6.65;;;410.30;691.20;;;;;;5074129;28;20047;-69
2021/03/23 10:32:49;;;;;;;8.98;5.40;;;410.40;665.60;;;;;;5075095;28;20368;-65
2021/03/23 10:35:18;;;;;;;11.50;5.63;;;410.40;665.60;;;;;;5074508;28;20017;-70
2021/03/23 10:37:44;;;;;;;8.80;4.88;;;410.50;665.60;;;;;;5073941;28;20509;-70
2021/03/23 10:40:52;;;;;;;10.52;6.32;;;410.50;665.60;;;;;;5073685;28;20428;-71
2021/03/23 10:43:43;;;;;;;13.55;7.30;;;410.40;665.60;;;;;;4973181;28;20062;-65
2021/03/23 10:46:36;;;;;;;14.30;7.70;;;410.50;665.60;;;;;;4972616;28;20037;-71
2021/03/23 10:49:27;;;;;;;14.63;7.28;;;410.50;665.60;;;;;;4972998;28;20116;-71
2021/03/23 10:52:04;;;;;;;12.95;7.22;;;410.50;665.60;;;;;;4972672;28;20401;-70
2021/03/23 10:54:38;;;;;;;11.52;6.45;;;435.20;691.20;;;;;;4973224;28;20054;-70
2021/03/23 10:57:22;;;;;;;12.57;6.32;;;435.30;665.60;;;;;;4972757;28;20181;-66
2021/03/23 10:59:47;;;;;;;8.80;5.07;;;435.30;665.60;;;;;;4972951;28;20508;-67
2021/03/23 11:02:13;;;;;;;10.38;5.82;;;435.40;665.60;;;;;;4972900;28;20027;-72
2021/03/23 11:04:57;;;;;;;12.85;5.35;;;435.40;665.60;;;;;;4972601;28;20533;-71
2021/03/23 11:07:27;;;;;;;8.27;4.95;;;435.30;665.60;;;;;;4972205;28;20037;-68
2021/03/23 11:10:00;;;;;;;7.80;5.35;;;435.30;691.20;;;;;;4972513;28;20046;-72
2021/03/23 11:12:28;;;;;;;8.82;4.63;;;435.30;691.20;;;;;;4972967;28;20046;-72
2021/03/23 11:14:54;;;;;;;8.80;5.05;;;435.40;665.60;;;;;;4972707;28;20516;-71
2021/03/23 11:17:22;;;;;;;6.82;4.93;;;435.40;665.60;;;;;;5029389;28;20505;-64
2021/03/23 11:19:52;;;;;;;12.95;6.80;;;435.60;665.60;;;;;;5073385;28;20036;-71
2021/03/23 11:22:32;;;;;;;8.05;4.97;;;435.70;665.60;;;;;;5072826;28;20094;-71
2021/03/23 11:24:58;;;;;;;6.53;4.18;;;435.90;665.60;;;;;;5072141;28;20024;-68
2021/03/23 11:27:28;;;;;;;9.75;4.25;;;435.90;665.60;;;;;;5072549;28;20028;-69
2021/03/23 11:29:58;;;;;;;8.50;5.22;;;436.00;665.60;;;;;;5071678;28;20027;-71
2021/03/23 11:32:25;;;;;;;11.10;4.18;;;435.90;640.00;;;;;;5071561;28;20355;-70
2021/03/23 11:34:54;;;;;;;6.97;4.93;;;435.80;640.00;;;;;;5072198;28;20082;-70
2021/03/23 11:37:20;;;;;;;7.25;4.75;;;435.70;665.60;;;;;;5071383;28;20040;-71
2021/03/23 11:39:46;;;;;;;7.65;4.43;;;435.60;665.60;;;;;;5071899;28;20017;-71
2021/03/23 11:42:14;;;;;;;9.60;5.47;;;435.60;665.60;;;;;;5053000;28;20039;-72
2021/03/23 11:44:47;;;;;;;13.43;5.40;;;435.40;665.60;;;;;;5071467;28;20029;-70
2021/03/23 11:47:26;;;;;;;14.02;6.28;;;435.30;665.60;;;;;;5054159;28;20066;-66
2021/03/23 11:50:01;;;;;;;13.75;6.90;;;435.20;665.60;;;;;;5051173;28;20025;-74
2021/03/23 11:52:27;;;;;;;13.10;6.85;;;410.50;665.60;;;;;;5071646;28;20119;-72
2021/03/23 11:54:53;;;;;;;13.00;6.57;;;410.50;665.60;;;;;;5069670;28;20096;-72
2021/03/23 11:57:19;;;;;;;8.43;4.95;;;410.40;742.40;;;;;;5071773;28;20443;-72
2021/03/23 11:59:45;;;;;;;13.40;5.75;;;410.40;691.20;;;;;;5070037;28;20033;-72
2021/03/23 12:02:12;;;;;;;13.00;6.00;;;410.30;665.60;;;;;;5069802;28;20193;-71
2021/03/23 12:04:38;;;;;;;13.57;7.40;;;410.20;665.60;;;;;;5070574;28;20336;-73
2021/03/23 12:07:27;;;;;;;33.67;15.80;;;410.10;691.20;;;;;;5071935;28;20215;-71
2021/03/23 12:09:57;;;;;;;16.08;10.10;;;410.10;665.60;;;;;;5050975;28;20375;-72
2021/03/23 12:12:29;;;;;;;21.70;14.68;;;410.00;691.20;;;;;;5071375;28;20106;-72
2021/03/23 12:15:13;;;;;;;13.70;7.22;;;409.90;665.60;;;;;;5071393;28;20016;-71
2021/03/23 12:17:45;;;;;;;16.55;9.38;;;409.80;691.20;;;;;;5067883;28;20058;-64
2021/03/23 12:20:18;;;;;;;16.80;9.98;;;409.80;691.20;;;;;;5071195;28;20090;-73
2021/03/23 12:22:44;;;;;;;15.75;8.80;;;409.70;691.20;;;;;;5069746;28;20035;-71
2021/03/23 12:25:11;;;;;;;24.02;11.25;;;409.70;716.80;;;;;;5070748;28;20123;-73
2021/03/23 12:27:37;;;;;;;12.57;8.35;;;409.60;716.80;;;;;;5068780;28;20074;-72
2021/03/23 12:30:05;;;;;;;9.93;6.18;;;384.90;691.20;;;;;;5071343;28;20009;-67
2021/03/23 12:32:33;;;;;;;8.90;5.30;;;384.90;665.60;;;;;;5070586;28;20530;-69
2021/03/23 12:34:59;;;;;;;7.97;5.00;;;384.80;665.60;;;;;;5069038;28;20405;-71
2021/03/23 12:37:25;;;;;;;10.13;6.30;;;384.80;665.60;;;;;;5071398;28;20036;-66
2021/03/23 12:39:53;;;;;;;8.63;5.45;;;384.80;665.60;;;;;;5070443;28;20392;-68
2021/03/23 12:42:19;;;;;;;7.57;4.65;;;384.80;691.20;;;;;;5068751;28;20074;-73